ANZ550 NZAA-NFFN
Flight info
| Callsign | ANZ550 |
|---|---|
| Flight time | 2h 40m |
| Altitude | 40000 |
| Route | KALAG A578 AGTOS A577 MI |
| Aircraft | A333/H-SDE3GHIJ2J3J5M1RVWXY/LB2D1 |
Departure
| Time | 2026-05-06 06:33 |
|---|---|
| Airport | Auckland International Airport (NZAA) |
Arrival
| Time | 2026-05-06 09:13 |
|---|---|
| Airport | Nadi International Airport (NFFN) |
| Time | Latitude | Longitude | Altitude | Speed | Heading |
|---|---|---|---|---|---|
| 2026-05-06 05:44 | -37.00704 | 174.78133 | 28 ft | 0 kts | 131° |
| 2026-05-06 06:14 | -37.00691 | 174.78115 | 28 ft | 3 kts | 131° |
| 2026-05-06 06:14 | -37.00675 | 174.78100 | 28 ft | 3 kts | 165° |
| 2026-05-06 06:15 | -37.00658 | 174.78088 | 28 ft | 3 kts | 134° |
| 2026-05-06 06:15 | -37.00645 | 174.78071 | 28 ft | 3 kts | 134° |
| 2026-05-06 06:15 | -37.00629 | 174.78056 | 28 ft | 3 kts | 178° |
| 2026-05-06 06:15 | -37.00628 | 174.78056 | 28 ft | 0 kts | 181° |
| 2026-05-06 06:26 | -37.00631 | 174.78055 | 28 ft | 3 kts | 187° |
| 2026-05-06 06:26 | -37.00688 | 174.78030 | 28 ft | 14 kts | 200° |
| 2026-05-06 06:26 | -37.00793 | 174.78011 | 165 ft | 16 kts | 172° |
| 2026-05-06 06:26 | -37.00853 | 174.78033 | 28 ft | 0 kts | 159° |
| 2026-05-06 06:27 | -37.00859 | 174.78036 | 28 ft | 4 kts | 159° |
| 2026-05-06 06:27 | -37.00889 | 174.78066 | 28 ft | 5 kts | 123° |
| 2026-05-06 06:27 | -37.00923 | 174.78140 | 30 ft | 15 kts | 119° |
| 2026-05-06 06:27 | -37.00989 | 174.78246 | 31 ft | 16 kts | 146° |
| 2026-05-06 06:28 | -37.01085 | 174.78269 | 29 ft | 11 kts | 208° |
| 2026-05-06 06:28 | -37.01134 | 174.78179 | 27 ft | 15 kts | 249° |
| 2026-05-06 06:28 | -37.01171 | 174.78050 | 28 ft | 17 kts | 250° |
| 2026-05-06 06:28 | -37.01212 | 174.77903 | 26 ft | 20 kts | 251° |
| 2026-05-06 06:29 | -37.01259 | 174.77725 | 29 ft | 23 kts | 251° |
| 2026-05-06 06:29 | -37.01314 | 174.77529 | 29 ft | 25 kts | 251° |
| 2026-05-06 06:29 | -37.01374 | 174.77314 | 27 ft | 26 kts | 251° |
| 2026-05-06 06:29 | -37.01419 | 174.77157 | 31 ft | 11 kts | 248° |
| 2026-05-06 06:30 | -37.01459 | 174.77109 | 29 ft | 4 kts | 194° |
| 2026-05-06 06:30 | -37.01485 | 174.77102 | 29 ft | 0 kts | 192° |
| 2026-05-06 06:30 | -37.01495 | 174.77099 | 29 ft | 5 kts | 192° |
| 2026-05-06 06:31 | -37.01551 | 174.77085 | 30 ft | 11 kts | 188° |
| 2026-05-06 06:31 | -37.01612 | 174.77122 | 28 ft | 8 kts | 108° |
| 2026-05-06 06:31 | -37.01607 | 174.77169 | 28 ft | 0 kts | 71° |
| 2026-05-06 06:32 | -37.01602 | 174.77189 | 27 ft | 13 kts | 71° |
| 2026-05-06 06:33 | -37.01511 | 174.77519 | 30 ft | 73 kts | 70° |
| 2026-05-06 06:33 | -37.01274 | 174.78374 | 25 ft | 132 kts | 71° |
| 2026-05-06 06:33 | -37.00952 | 174.79627 | 276 ft | 159 kts | 70° |
| 2026-05-06 06:33 | -37.00600 | 174.80952 | 883 ft | 164 kts | 69° |
| 2026-05-06 06:34 | -37.00227 | 174.82345 | 1518 ft | 173 kts | 69° |
| 2026-05-06 06:34 | -36.99840 | 174.83790 | 2232 ft | 178 kts | 68° |
| 2026-05-06 06:34 | -36.99443 | 174.85272 | 2925 ft | 182 kts | 68° |
| 2026-05-06 06:34 | -36.99014 | 174.86784 | 3617 ft | 185 kts | 67° |
| 2026-05-06 06:35 | -36.98578 | 174.88280 | 4300 ft | 186 kts | 67° |
| 2026-05-06 06:35 | -36.98140 | 174.89801 | 5015 ft | 186 kts | 68° |
| 2026-05-06 06:35 | -36.97707 | 174.91327 | 5696 ft | 187 kts | 68° |
| 2026-05-06 06:35 | -36.97264 | 174.92894 | 6364 ft | 194 kts | 68° |
| 2026-05-06 06:36 | -36.96814 | 174.94496 | 7067 ft | 200 kts | 68° |
| 2026-05-06 06:36 | -36.96347 | 174.96167 | 7749 ft | 207 kts | 68° |
| 2026-05-06 06:36 | -36.95863 | 174.97897 | 8470 ft | 214 kts | 68° |
| 2026-05-06 06:36 | -36.95336 | 174.99677 | 9187 ft | 221 kts | 63° |
| 2026-05-06 06:37 | -36.94547 | 175.01346 | 9919 ft | 225 kts | 47° |
| 2026-05-06 06:37 | -36.93384 | 175.02674 | 10619 ft | 229 kts | 30° |
| 2026-05-06 06:37 | -36.92440 | 175.03278 | 11074 ft | 232 kts | 18° |
| 2026-05-06 06:37 | -36.90291 | 175.03709 | 11998 ft | 239 kts | 359° |
| 2026-05-06 06:38 | -36.88625 | 175.03644 | 12702 ft | 246 kts | 356° |
| 2026-05-06 06:38 | -36.86894 | 175.03527 | 13415 ft | 252 kts | 356° |
| 2026-05-06 06:38 | -36.85121 | 175.03411 | 14165 ft | 258 kts | 356° |
| 2026-05-06 06:38 | -36.83307 | 175.03302 | 14822 ft | 263 kts | 356° |
| 2026-05-06 06:39 | -36.82087 | 175.03233 | 15292 ft | 266 kts | 356° |
| 2026-05-06 06:39 | -36.80221 | 175.03131 | 15972 ft | 270 kts | 356° |
| 2026-05-06 06:39 | -36.78327 | 175.03030 | 16675 ft | 274 kts | 356° |
| 2026-05-06 06:39 | -36.76406 | 175.02930 | 17395 ft | 277 kts | 356° |
| 2026-05-06 06:40 | -36.74475 | 175.02829 | 18126 ft | 279 kts | 355° |
| 2026-05-06 06:40 | -36.72557 | 175.02730 | 18832 ft | 280 kts | 355° |
| 2026-05-06 06:40 | -36.70601 | 175.02629 | 19487 ft | 280 kts | 355° |
| 2026-05-06 06:40 | -36.68651 | 175.02528 | 20138 ft | 280 kts | 355° |
| 2026-05-06 06:41 | -36.66707 | 175.02428 | 20807 ft | 278 kts | 355° |
| 2026-05-06 06:41 | -36.64774 | 175.02329 | 21504 ft | 276 kts | 355° |
| 2026-05-06 06:41 | -36.62869 | 175.02231 | 22183 ft | 272 kts | 355° |
| 2026-05-06 06:41 | -36.61000 | 175.02136 | 22890 ft | 266 kts | 355° |
| 2026-05-06 06:42 | -36.59174 | 175.02043 | 23607 ft | 259 kts | 355° |
| 2026-05-06 06:42 | -36.57405 | 175.01953 | 24262 ft | 248 kts | 355° |
| 2026-05-06 06:42 | -36.55725 | 175.01868 | 24874 ft | 234 kts | 354° |
| 2026-05-06 06:42 | -36.54153 | 175.01790 | 25445 ft | 219 kts | 354° |
| 2026-05-06 06:43 | -36.52643 | 175.01735 | 25662 ft | 225 kts | 356° |
| 2026-05-06 06:43 | -36.51014 | 175.01752 | 25669 ft | 241 kts | 360° |
| 2026-05-06 06:43 | -36.49335 | 175.01925 | 26002 ft | 239 kts | 6° |
| 2026-05-06 06:43 | -36.47741 | 175.02325 | 26492 ft | 230 kts | 14° |
| 2026-05-06 06:44 | -36.46221 | 175.03010 | 26637 ft | 239 kts | 24° |
| 2026-05-06 06:44 | -36.44732 | 175.04079 | 26636 ft | 254 kts | 37° |
| 2026-05-06 06:44 | -36.43416 | 175.05541 | 26997 ft | 249 kts | 51° |
| 2026-05-06 06:44 | -36.42469 | 175.07267 | 27474 ft | 238 kts | 68° |
| 2026-05-06 06:45 | -36.41955 | 175.09189 | 27583 ft | 241 kts | 86° |
| 2026-05-06 06:45 | -36.41938 | 175.11304 | 27563 ft | 249 kts | 105° |
| 2026-05-06 06:45 | -36.42493 | 175.13297 | 27882 ft | 238 kts | 127° |
| 2026-05-06 06:45 | -36.43539 | 175.14774 | 28345 ft | 220 kts | 152° |
| 2026-05-06 06:46 | -36.44924 | 175.15493 | 28491 ft | 218 kts | 178° |
| 2026-05-06 06:46 | -36.46444 | 175.15275 | 28432 ft | 227 kts | 205° |
| 2026-05-06 06:46 | -36.47676 | 175.14089 | 28627 ft | 230 kts | 235° |
| 2026-05-06 06:46 | -36.48178 | 175.12225 | 29047 ft | 232 kts | 268° |
| 2026-05-06 06:47 | -36.47684 | 175.10278 | 29234 ft | 250 kts | 303° |
| 2026-05-06 06:47 | -36.46231 | 175.08930 | 29123 ft | 279 kts | 340° |
| 2026-05-06 06:47 | -36.44251 | 175.08859 | 29194 ft | 295 kts | 18° |
| 2026-05-06 06:47 | -36.42590 | 175.10239 | 29533 ft | 288 kts | 58° |
| 2026-05-06 06:48 | -36.41710 | 175.12392 | 30098 ft | 270 kts | 66° |
| 2026-05-06 06:48 | -36.40474 | 175.14065 | 30479 ft | 270 kts | 26° |
| 2026-05-06 06:48 | -36.38572 | 175.14400 | 29607 ft | 300 kts | 338° |
| 2026-05-06 06:48 | -36.36604 | 175.13119 | 28580 ft | 343 kts | 325° |
| 2026-05-06 06:49 | -36.34415 | 175.11567 | 27630 ft | 390 kts | 329° |
| 2026-05-06 06:49 | -36.31761 | 175.10365 | 27344 ft | 419 kts | 346° |
| 2026-05-06 06:49 | -36.28841 | 175.09670 | 27345 ft | 434 kts | 347° |
| 2026-05-06 06:49 | -36.25833 | 175.08924 | 27353 ft | 447 kts | 343° |
| 2026-05-06 06:50 | -36.22922 | 175.07503 | 27353 ft | 449 kts | 328° |
| 2026-05-06 06:50 | -36.20334 | 175.05392 | 27352 ft | 447 kts | 323° |
| 2026-05-06 06:50 | -36.17555 | 175.03729 | 27335 ft | 445 kts | 341° |
| 2026-05-06 06:50 | -36.14538 | 175.03170 | 27169 ft | 444 kts | 358° |
| 2026-05-06 06:51 | -36.11483 | 175.03666 | 26596 ft | 445 kts | 13° |
| 2026-05-06 06:51 | -36.08507 | 175.04620 | 26241 ft | 437 kts | 13° |
| 2026-05-06 06:51 | -36.05550 | 175.05417 | 25843 ft | 431 kts | 9° |
| 2026-05-06 06:51 | -36.02614 | 175.06032 | 25491 ft | 425 kts | 7° |
| 2026-05-06 06:52 | -35.99683 | 175.06525 | 25389 ft | 424 kts | 6° |
| 2026-05-06 06:52 | -35.96748 | 175.06950 | 25376 ft | 425 kts | 5° |
| 2026-05-06 06:52 | -35.93802 | 175.07337 | 25373 ft | 425 kts | 5° |
| 2026-05-06 06:52 | -35.90886 | 175.07698 | 25369 ft | 425 kts | 4° |
| 2026-05-06 06:53 | -35.87945 | 175.08049 | 25365 ft | 425 kts | 4° |
| 2026-05-06 06:53 | -35.84995 | 175.08394 | 25374 ft | 425 kts | 4° |
| 2026-05-06 06:53 | -35.82052 | 175.08734 | 25374 ft | 425 kts | 4° |
| 2026-05-06 06:53 | -35.79101 | 175.09073 | 25360 ft | 425 kts | 4° |
| 2026-05-06 06:54 | -35.76154 | 175.09411 | 25372 ft | 425 kts | 4° |
| 2026-05-06 06:54 | -35.73207 | 175.09747 | 25374 ft | 425 kts | 4° |
| 2026-05-06 06:54 | -35.70259 | 175.10083 | 25370 ft | 425 kts | 4° |
| 2026-05-06 06:54 | -35.67315 | 175.10418 | 25370 ft | 425 kts | 4° |
| 2026-05-06 06:55 | -35.64373 | 175.10753 | 25357 ft | 425 kts | 4° |
| 2026-05-06 06:55 | -35.61421 | 175.11089 | 25360 ft | 425 kts | 4° |
| 2026-05-06 06:55 | -35.58516 | 175.11419 | 25361 ft | 425 kts | 4° |
| 2026-05-06 06:55 | -35.55562 | 175.11754 | 25368 ft | 425 kts | 4° |
| 2026-05-06 06:56 | -35.52609 | 175.12089 | 25365 ft | 425 kts | 4° |
| 2026-05-06 06:56 | -35.49655 | 175.12423 | 25371 ft | 425 kts | 4° |
| 2026-05-06 06:56 | -35.46703 | 175.12758 | 25367 ft | 425 kts | 4° |
| 2026-05-06 06:56 | -35.43756 | 175.13091 | 25362 ft | 425 kts | 4° |
| 2026-05-06 06:57 | -35.40838 | 175.13421 | 25356 ft | 425 kts | 4° |
| 2026-05-06 06:57 | -35.37891 | 175.13754 | 25358 ft | 426 kts | 4° |
| 2026-05-06 06:57 | -35.34935 | 175.14088 | 25356 ft | 426 kts | 4° |
| 2026-05-06 06:57 | -35.31978 | 175.14421 | 25363 ft | 426 kts | 4° |
| 2026-05-06 06:58 | -35.29016 | 175.14755 | 25360 ft | 426 kts | 4° |
| 2026-05-06 06:58 | -35.26060 | 175.15088 | 25359 ft | 426 kts | 4° |
| 2026-05-06 06:58 | -35.23141 | 175.15416 | 25359 ft | 426 kts | 4° |
| 2026-05-06 06:58 | -35.20181 | 175.15749 | 25358 ft | 426 kts | 4° |
| 2026-05-06 06:59 | -35.17225 | 175.16081 | 25354 ft | 426 kts | 4° |
| 2026-05-06 06:59 | -35.14265 | 175.16414 | 25357 ft | 426 kts | 4° |
| 2026-05-06 06:59 | -35.11297 | 175.16747 | 25359 ft | 427 kts | 4° |
| 2026-05-06 06:59 | -35.08368 | 175.17076 | 25357 ft | 427 kts | 4° |
| 2026-05-06 07:00 | -35.05412 | 175.17407 | 25356 ft | 427 kts | 4° |
| 2026-05-06 07:00 | -35.02441 | 175.17740 | 25359 ft | 427 kts | 4° |
| 2026-05-06 07:00 | -34.99482 | 175.18071 | 25357 ft | 427 kts | 4° |
| 2026-05-06 07:00 | -34.96516 | 175.18403 | 25363 ft | 427 kts | 4° |
| 2026-05-06 07:01 | -34.93549 | 175.18734 | 25357 ft | 427 kts | 4° |
| 2026-05-06 07:01 | -34.90586 | 175.19065 | 25355 ft | 427 kts | 4° |
| 2026-05-06 07:01 | -34.87656 | 175.19391 | 25351 ft | 427 kts | 4° |
| 2026-05-06 07:01 | -34.84695 | 175.19721 | 25354 ft | 428 kts | 4° |
| 2026-05-06 07:02 | -34.81730 | 175.20052 | 25352 ft | 428 kts | 4° |
| 2026-05-06 07:02 | -34.78765 | 175.20383 | 25352 ft | 428 kts | 4° |
| 2026-05-06 07:02 | -34.75790 | 175.20714 | 25352 ft | 428 kts | 4° |
| 2026-05-06 07:02 | -34.72828 | 175.21043 | 25349 ft | 428 kts | 4° |
| 2026-05-06 07:03 | -34.69858 | 175.21373 | 25349 ft | 428 kts | 4° |
| 2026-05-06 07:03 | -34.66890 | 175.21702 | 25349 ft | 428 kts | 4° |
| 2026-05-06 07:03 | -34.63918 | 175.22031 | 25341 ft | 428 kts | 4° |
| 2026-05-06 07:03 | -34.60987 | 175.22356 | 25345 ft | 428 kts | 4° |
| 2026-05-06 07:04 | -34.58016 | 175.22686 | 25346 ft | 429 kts | 4° |
| 2026-05-06 07:04 | -34.55045 | 175.23015 | 25346 ft | 429 kts | 4° |
| 2026-05-06 07:04 | -34.52070 | 175.23344 | 25346 ft | 429 kts | 4° |
| 2026-05-06 07:04 | -34.49089 | 175.23674 | 25347 ft | 429 kts | 4° |
| 2026-05-06 07:05 | -34.46115 | 175.24002 | 25346 ft | 429 kts | 4° |
| 2026-05-06 07:05 | -34.43143 | 175.24330 | 25346 ft | 429 kts | 4° |
| 2026-05-06 07:05 | -34.40166 | 175.24658 | 25346 ft | 429 kts | 4° |
| 2026-05-06 07:05 | -34.37188 | 175.24987 | 25345 ft | 429 kts | 4° |
| 2026-05-06 07:06 | -34.34206 | 175.25315 | 25347 ft | 429 kts | 4° |
| 2026-05-06 07:06 | -34.31271 | 175.25638 | 25346 ft | 429 kts | 4° |
| 2026-05-06 07:06 | -34.28290 | 175.25966 | 25346 ft | 429 kts | 4° |
| 2026-05-06 07:06 | -34.25310 | 175.26294 | 25347 ft | 429 kts | 4° |
| 2026-05-06 07:07 | -34.22331 | 175.26621 | 25346 ft | 429 kts | 4° |
| 2026-05-06 07:07 | -34.19346 | 175.26949 | 25347 ft | 429 kts | 4° |
| 2026-05-06 07:07 | -34.16404 | 175.27272 | 25346 ft | 429 kts | 4° |
| 2026-05-06 07:07 | -34.13430 | 175.27597 | 25346 ft | 429 kts | 4° |
| 2026-05-06 07:08 | -34.10454 | 175.27923 | 25344 ft | 429 kts | 4° |
| 2026-05-06 07:08 | -34.07480 | 175.28248 | 25345 ft | 429 kts | 4° |
| 2026-05-06 07:08 | -34.04504 | 175.28573 | 25345 ft | 430 kts | 4° |
| 2026-05-06 07:08 | -34.01518 | 175.28900 | 25343 ft | 430 kts | 4° |
| 2026-05-06 07:09 | -33.98545 | 175.29225 | 25344 ft | 430 kts | 4° |
| 2026-05-06 07:09 | -33.95558 | 175.29551 | 25343 ft | 429 kts | 4° |
| 2026-05-06 07:09 | -33.92575 | 175.29876 | 25344 ft | 429 kts | 4° |
| 2026-05-06 07:09 | -33.89592 | 175.30201 | 25342 ft | 429 kts | 4° |
| 2026-05-06 07:10 | -33.86613 | 175.30526 | 25342 ft | 430 kts | 4° |
| 2026-05-06 07:10 | -33.83676 | 175.30845 | 25341 ft | 429 kts | 4° |
| 2026-05-06 07:10 | -33.80698 | 175.31169 | 25335 ft | 429 kts | 4° |
| 2026-05-06 07:10 | -33.77725 | 175.31493 | 25337 ft | 429 kts | 4° |
| 2026-05-06 07:11 | -33.74743 | 175.31817 | 25334 ft | 429 kts | 4° |
| 2026-05-06 07:11 | -33.71765 | 175.32140 | 25336 ft | 429 kts | 4° |
| 2026-05-06 07:11 | -33.68790 | 175.32480 | 25329 ft | 429 kts | 5° |
| 2026-05-06 07:11 | -33.65819 | 175.32885 | 25331 ft | 430 kts | 6° |
| 2026-05-06 07:12 | -33.62851 | 175.33330 | 25331 ft | 430 kts | 6° |
| 2026-05-06 07:12 | -33.59891 | 175.33790 | 25381 ft | 430 kts | 6° |
| 2026-05-06 07:12 | -33.56899 | 175.34257 | 25630 ft | 436 kts | 6° |
| 2026-05-06 07:12 | -33.53911 | 175.34720 | 26006 ft | 439 kts | 6° |
| 2026-05-06 07:13 | -33.50865 | 175.35186 | 26406 ft | 443 kts | 6° |
| 2026-05-06 07:13 | -33.47794 | 175.35651 | 26796 ft | 446 kts | 6° |
| 2026-05-06 07:13 | -33.44704 | 175.36116 | 27175 ft | 449 kts | 6° |
| 2026-05-06 07:13 | -33.41581 | 175.36584 | 27549 ft | 453 kts | 6° |
| 2026-05-06 07:14 | -33.38436 | 175.37054 | 27916 ft | 456 kts | 6° |
| 2026-05-06 07:14 | -33.35277 | 175.37525 | 28283 ft | 459 kts | 6° |
| 2026-05-06 07:14 | -33.32084 | 175.38002 | 28644 ft | 463 kts | 6° |
| 2026-05-06 07:14 | -33.28876 | 175.38480 | 28998 ft | 466 kts | 6° |
| 2026-05-06 07:15 | -33.25643 | 175.38962 | 29345 ft | 469 kts | 6° |
| 2026-05-06 07:15 | -33.22391 | 175.39447 | 29688 ft | 472 kts | 6° |
| 2026-05-06 07:15 | -33.19111 | 175.39936 | 30029 ft | 475 kts | 5° |
| 2026-05-06 07:15 | -33.15857 | 175.40420 | 30356 ft | 478 kts | 5° |
| 2026-05-06 07:16 | -33.12543 | 175.40914 | 30653 ft | 481 kts | 5° |
| 2026-05-06 07:16 | -33.09210 | 175.41409 | 30954 ft | 483 kts | 5° |
| 2026-05-06 07:16 | -33.05860 | 175.41907 | 31248 ft | 486 kts | 5° |
| 2026-05-06 07:16 | -33.02491 | 175.42407 | 31533 ft | 488 kts | 5° |
| 2026-05-06 07:17 | -32.99107 | 175.42912 | 31869 ft | 489 kts | 6° |
| 2026-05-06 07:17 | -32.95724 | 175.43419 | 32194 ft | 491 kts | 5° |
| 2026-05-06 07:17 | -32.92323 | 175.43923 | 32516 ft | 492 kts | 5° |
| 2026-05-06 07:17 | -32.88967 | 175.44417 | 32908 ft | 491 kts | 5° |
| 2026-05-06 07:18 | -32.85580 | 175.44916 | 33307 ft | 490 kts | 5° |
| 2026-05-06 07:18 | -32.82186 | 175.45416 | 33695 ft | 489 kts | 5° |
| 2026-05-06 07:18 | -32.78798 | 175.45915 | 34052 ft | 489 kts | 5° |
| 2026-05-06 07:18 | -32.75417 | 175.46412 | 34391 ft | 489 kts | 5° |
| 2026-05-06 07:19 | -32.72088 | 175.46903 | 34715 ft | 487 kts | 5° |
| 2026-05-06 07:19 | -32.68725 | 175.47398 | 35070 ft | 485 kts | 5° |
| 2026-05-06 07:19 | -32.65375 | 175.47891 | 35415 ft | 484 kts | 5° |
| 2026-05-06 07:19 | -32.62035 | 175.48382 | 35739 ft | 483 kts | 5° |
| 2026-05-06 07:20 | -32.58701 | 175.48872 | 36059 ft | 481 kts | 5° |
| 2026-05-06 07:20 | -32.55377 | 175.49360 | 36365 ft | 480 kts | 5° |
| 2026-05-06 07:20 | -32.52051 | 175.49848 | 36631 ft | 480 kts | 4° |
| 2026-05-06 07:20 | -32.48771 | 175.50328 | 36869 ft | 481 kts | 4° |
| 2026-05-06 07:21 | -32.45454 | 175.50813 | 37136 ft | 480 kts | 4° |
| 2026-05-06 07:21 | -32.42124 | 175.51301 | 37424 ft | 479 kts | 4° |
| 2026-05-06 07:21 | -32.38817 | 175.51785 | 37712 ft | 479 kts | 4° |
| 2026-05-06 07:21 | -32.35511 | 175.52268 | 37998 ft | 478 kts | 4° |
| 2026-05-06 07:22 | -32.32214 | 175.52750 | 38291 ft | 477 kts | 4° |
| 2026-05-06 07:22 | -32.28936 | 175.53228 | 38552 ft | 476 kts | 4° |
| 2026-05-06 07:22 | -32.25650 | 175.53707 | 38787 ft | 476 kts | 4° |
| 2026-05-06 07:22 | -32.22351 | 175.54187 | 38900 ft | 478 kts | 4° |
| 2026-05-06 07:23 | -32.20157 | 175.54506 | 39013 ft | 479 kts | 4° |
| 2026-05-06 07:23 | -32.16847 | 175.54987 | 39196 ft | 479 kts | 4° |
| 2026-05-06 07:23 | -32.13540 | 175.55469 | 39392 ft | 478 kts | 4° |
| 2026-05-06 07:23 | -32.09170 | 175.56105 | 39642 ft | 477 kts | 4° |
| 2026-05-06 07:24 | -32.05874 | 175.56583 | 39823 ft | 477 kts | 4° |
| 2026-05-06 07:24 | -32.03643 | 175.56907 | 39944 ft | 477 kts | 4° |
| 2026-05-06 07:24 | -32.00345 | 175.57386 | 40115 ft | 476 kts | 4° |
| 2026-05-06 07:24 | -31.97053 | 175.57863 | 40239 ft | 477 kts | 4° |
| 2026-05-06 07:25 | -31.93789 | 175.58334 | 40299 ft | 480 kts | 4° |
| 2026-05-06 07:25 | -31.87099 | 175.59299 | 40296 ft | 489 kts | 4° |
| 2026-05-06 07:26 | -31.80302 | 175.60281 | 40295 ft | 491 kts | 4° |
| 2026-05-06 07:26 | -31.73534 | 175.61261 | 40297 ft | 490 kts | 4° |
| 2026-05-06 07:27 | -31.66788 | 175.62233 | 40296 ft | 492 kts | 4° |
| 2026-05-06 07:27 | -31.59985 | 175.63212 | 40294 ft | 493 kts | 4° |
| 2026-05-06 07:28 | -31.53169 | 175.64191 | 40289 ft | 493 kts | 4° |
| 2026-05-06 07:28 | -31.42967 | 175.65654 | 40277 ft | 493 kts | 4° |
| 2026-05-06 07:29 | -31.36131 | 175.66631 | 40288 ft | 495 kts | 4° |
| 2026-05-06 07:29 | -31.29320 | 175.67604 | 40281 ft | 496 kts | 4° |
| 2026-05-06 07:30 | -31.22470 | 175.68582 | 40281 ft | 496 kts | 4° |
| 2026-05-06 07:30 | -31.15612 | 175.69560 | 40275 ft | 496 kts | 3° |
| 2026-05-06 07:31 | -31.08753 | 175.70535 | 40279 ft | 497 kts | 3° |
| 2026-05-06 07:31 | -31.01917 | 175.71506 | 40279 ft | 497 kts | 3° |
| 2026-05-06 07:32 | -30.95061 | 175.72480 | 40276 ft | 497 kts | 3° |
| 2026-05-06 07:32 | -30.88221 | 175.73449 | 40258 ft | 497 kts | 3° |
| 2026-05-06 07:33 | -30.81333 | 175.74419 | 40273 ft | 499 kts | 3° |
| 2026-05-06 07:33 | -30.74431 | 175.75389 | 40273 ft | 499 kts | 3° |
| 2026-05-06 07:34 | -30.67526 | 175.76360 | 40275 ft | 499 kts | 3° |
| 2026-05-06 07:34 | -30.60667 | 175.77323 | 40271 ft | 499 kts | 3° |
| 2026-05-06 07:35 | -30.53761 | 175.78292 | 40268 ft | 499 kts | 3° |
| 2026-05-06 07:35 | -30.46856 | 175.79258 | 40266 ft | 499 kts | 3° |
| 2026-05-06 07:36 | -30.39948 | 175.80224 | 40264 ft | 499 kts | 3° |
| 2026-05-06 07:36 | -30.33039 | 175.81194 | 40252 ft | 499 kts | 4° |
| 2026-05-06 07:37 | -30.26172 | 175.82151 | 40265 ft | 499 kts | 3° |
| 2026-05-06 07:37 | -30.19289 | 175.83105 | 40258 ft | 499 kts | 3° |
| 2026-05-06 07:38 | -30.12390 | 175.84062 | 40260 ft | 499 kts | 3° |
| 2026-05-06 07:38 | -30.05517 | 175.85016 | 40254 ft | 499 kts | 3° |
| 2026-05-06 07:39 | -29.98593 | 175.85976 | 40257 ft | 501 kts | 3° |
| 2026-05-06 07:39 | -29.91692 | 175.86931 | 40256 ft | 501 kts | 3° |
| 2026-05-06 07:40 | -29.84758 | 175.87889 | 40251 ft | 501 kts | 3° |
| 2026-05-06 07:40 | -29.77841 | 175.88844 | 40241 ft | 501 kts | 3° |
| 2026-05-06 07:41 | -29.70900 | 175.89801 | 40243 ft | 502 kts | 3° |
| 2026-05-06 07:41 | -29.63945 | 175.90758 | 40246 ft | 503 kts | 3° |
| 2026-05-06 07:42 | -29.57040 | 175.91707 | 40244 ft | 503 kts | 3° |
| 2026-05-06 07:42 | -29.50088 | 175.92662 | 40240 ft | 503 kts | 3° |
| 2026-05-06 07:43 | -29.43116 | 175.93618 | 40235 ft | 503 kts | 3° |
| 2026-05-06 07:43 | -29.36207 | 175.94563 | 40238 ft | 503 kts | 3° |
| 2026-05-06 07:44 | -29.29259 | 175.95513 | 40232 ft | 503 kts | 3° |
| 2026-05-06 07:44 | -29.22300 | 175.96463 | 40233 ft | 503 kts | 3° |
| 2026-05-06 07:45 | -29.15375 | 175.97407 | 40227 ft | 503 kts | 3° |
| 2026-05-06 07:45 | -29.08408 | 175.98356 | 40230 ft | 503 kts | 3° |
| 2026-05-06 07:46 | -29.01451 | 175.99301 | 40227 ft | 503 kts | 3° |
| 2026-05-06 07:46 | -28.94478 | 176.00248 | 40225 ft | 503 kts | 3° |
| 2026-05-06 07:47 | -28.87599 | 176.01181 | 40215 ft | 503 kts | 2° |
| 2026-05-06 07:47 | -28.80642 | 176.02123 | 40222 ft | 503 kts | 2° |
| 2026-05-06 07:48 | -28.73686 | 176.03063 | 40222 ft | 503 kts | 2° |
| 2026-05-06 07:48 | -28.66751 | 176.04000 | 40222 ft | 503 kts | 2° |
| 2026-05-06 07:49 | -28.59832 | 176.04933 | 40198 ft | 503 kts | 2° |
| 2026-05-06 07:49 | -28.52877 | 176.05870 | 40214 ft | 503 kts | 2° |
| 2026-05-06 07:50 | -28.45922 | 176.06805 | 40211 ft | 503 kts | 2° |
| 2026-05-06 07:50 | -28.38965 | 176.07740 | 40212 ft | 503 kts | 2° |
| 2026-05-06 07:51 | -28.32052 | 176.08667 | 40206 ft | 503 kts | 2° |
| 2026-05-06 07:51 | -28.25092 | 176.09600 | 40200 ft | 503 kts | 2° |
| 2026-05-06 07:52 | -28.18153 | 176.10528 | 40202 ft | 503 kts | 2° |
| 2026-05-06 07:52 | -28.11192 | 176.11458 | 40201 ft | 502 kts | 2° |
| 2026-05-06 07:53 | -28.04253 | 176.12384 | 40204 ft | 502 kts | 2° |
| 2026-05-06 07:53 | -27.97355 | 176.13304 | 40195 ft | 503 kts | 2° |
| 2026-05-06 07:54 | -27.90414 | 176.14227 | 40197 ft | 503 kts | 2° |
| 2026-05-06 07:54 | -27.83466 | 176.15151 | 40197 ft | 503 kts | 2° |
| 2026-05-06 07:55 | -27.76557 | 176.16069 | 40195 ft | 503 kts | 2° |
| 2026-05-06 07:55 | -27.69593 | 176.16992 | 40191 ft | 503 kts | 2° |
| 2026-05-06 07:56 | -27.62658 | 176.17910 | 40191 ft | 503 kts | 2° |
| 2026-05-06 07:56 | -27.55718 | 176.18828 | 40194 ft | 503 kts | 2° |
| 2026-05-06 07:57 | -27.48809 | 176.19743 | 40189 ft | 503 kts | 2° |
| 2026-05-06 07:57 | -27.41857 | 176.20659 | 40166 ft | 503 kts | 2° |
| 2026-05-06 07:58 | -27.34892 | 176.21576 | 40182 ft | 503 kts | 2° |
| 2026-05-06 07:58 | -27.27980 | 176.22485 | 40181 ft | 503 kts | 2° |
| 2026-05-06 07:59 | -27.21027 | 176.23399 | 40182 ft | 503 kts | 2° |
| 2026-05-06 07:59 | -27.14076 | 176.24311 | 40178 ft | 503 kts | 2° |
| 2026-05-06 08:00 | -27.07130 | 176.25222 | 40177 ft | 504 kts | 1° |
| 2026-05-06 08:00 | -27.00161 | 176.26134 | 40173 ft | 504 kts | 1° |
| 2026-05-06 08:01 | -26.93235 | 176.27040 | 40175 ft | 504 kts | 1° |
| 2026-05-06 08:01 | -26.86257 | 176.27952 | 40170 ft | 504 kts | 1° |
| 2026-05-06 08:02 | -26.79287 | 176.28861 | 40168 ft | 504 kts | 1° |
| 2026-05-06 08:02 | -26.72333 | 176.29767 | 40169 ft | 504 kts | 1° |
| 2026-05-06 08:03 | -26.65405 | 176.30669 | 40164 ft | 504 kts | 1° |
| 2026-05-06 08:03 | -26.58447 | 176.31573 | 40165 ft | 504 kts | 1° |
| 2026-05-06 08:04 | -26.51455 | 176.32481 | 40146 ft | 504 kts | 1° |
| 2026-05-06 08:04 | -26.44503 | 176.33383 | 40157 ft | 504 kts | 1° |
| 2026-05-06 08:05 | -26.37594 | 176.34277 | 40157 ft | 504 kts | 1° |
| 2026-05-06 08:05 | -26.30612 | 176.35180 | 40154 ft | 504 kts | 1° |
| 2026-05-06 08:06 | -26.23646 | 176.36080 | 40157 ft | 504 kts | 1° |
| 2026-05-06 08:06 | -26.16708 | 176.36975 | 40149 ft | 504 kts | 1° |
| 2026-05-06 08:07 | -26.09765 | 176.37870 | 40149 ft | 504 kts | 1° |
| 2026-05-06 08:07 | -26.02796 | 176.38767 | 40143 ft | 504 kts | 1° |
| 2026-05-06 08:08 | -25.95841 | 176.39661 | 40143 ft | 504 kts | 1° |
| 2026-05-06 08:08 | -25.88876 | 176.40556 | 40132 ft | 504 kts | 1° |
| 2026-05-06 08:09 | -25.81929 | 176.41447 | 40138 ft | 504 kts | 1° |
| 2026-05-06 08:09 | -25.75017 | 176.42332 | 40137 ft | 504 kts | 1° |
| 2026-05-06 08:10 | -25.68054 | 176.43223 | 40132 ft | 504 kts | 1° |
| 2026-05-06 08:10 | -25.61075 | 176.44115 | 40132 ft | 504 kts | 1° |
| 2026-05-06 08:11 | -25.54104 | 176.45005 | 40126 ft | 504 kts | 1° |
| 2026-05-06 08:11 | -25.47126 | 176.45895 | 40124 ft | 504 kts | 1° |
| 2026-05-06 08:12 | -25.40192 | 176.46778 | 40123 ft | 505 kts | 1° |
| 2026-05-06 08:12 | -25.33224 | 176.47665 | 40118 ft | 504 kts | 1° |
| 2026-05-06 08:13 | -25.27416 | 176.48403 | 40102 ft | 505 kts | 0° |
| 2026-05-06 08:13 | -25.20448 | 176.49287 | 40112 ft | 506 kts | 0° |
| 2026-05-06 08:14 | -25.13444 | 176.50175 | 40110 ft | 506 kts | 0° |
| 2026-05-06 08:14 | -25.06493 | 176.51056 | 40109 ft | 506 kts | 0° |
| 2026-05-06 08:15 | -24.99498 | 176.51942 | 40112 ft | 506 kts | 0° |
| 2026-05-06 08:15 | -24.92488 | 176.52828 | 40104 ft | 507 kts | 0° |
| 2026-05-06 08:16 | -24.85518 | 176.53708 | 40108 ft | 507 kts | 0° |
| 2026-05-06 08:16 | -24.78493 | 176.54594 | 40108 ft | 507 kts | 0° |
| 2026-05-06 08:17 | -24.71476 | 176.55479 | 40102 ft | 507 kts | 0° |
| 2026-05-06 08:17 | -24.64515 | 176.56356 | 40102 ft | 507 kts | 0° |
| 2026-05-06 08:18 | -24.57511 | 176.57237 | 40099 ft | 507 kts | 0° |
| 2026-05-06 08:18 | -24.50490 | 176.58119 | 40099 ft | 507 kts | 0° |
| 2026-05-06 08:19 | -24.43460 | 176.59001 | 40095 ft | 507 kts | 0° |
| 2026-05-06 08:19 | -24.36479 | 176.59876 | 40095 ft | 507 kts | 0° |
| 2026-05-06 08:20 | -24.29466 | 176.60754 | 40094 ft | 508 kts | 0° |
| 2026-05-06 08:20 | -24.22420 | 176.61634 | 40094 ft | 509 kts | 0° |
| 2026-05-06 08:21 | -24.15433 | 176.62508 | 40089 ft | 509 kts | 0° |
| 2026-05-06 08:21 | -24.08394 | 176.63387 | 40083 ft | 509 kts | 0° |
| 2026-05-06 08:22 | -24.01343 | 176.64266 | 40066 ft | 509 kts | 0° |
| 2026-05-06 08:22 | -23.94324 | 176.65139 | 40082 ft | 510 kts | 0° |
| 2026-05-06 08:23 | -23.87287 | 176.66014 | 40077 ft | 510 kts | 0° |
| 2026-05-06 08:23 | -23.80212 | 176.66894 | 40078 ft | 511 kts | 0° |
| 2026-05-06 08:24 | -23.73175 | 176.67767 | 40074 ft | 511 kts | 0° |
| 2026-05-06 08:24 | -23.66127 | 176.68641 | 40071 ft | 511 kts | 0° |
| 2026-05-06 08:25 | -23.59055 | 176.69516 | 40073 ft | 511 kts | 0° |
| 2026-05-06 08:25 | -23.52001 | 176.70389 | 40067 ft | 511 kts | 0° |
| 2026-05-06 08:26 | -23.44928 | 176.71264 | 40068 ft | 511 kts | 0° |
| 2026-05-06 08:26 | -23.37896 | 176.72131 | 40048 ft | 511 kts | 0° |
| 2026-05-06 08:27 | -23.30815 | 176.73004 | 40057 ft | 511 kts | 0° |
| 2026-05-06 08:27 | -23.23727 | 176.73877 | 40057 ft | 512 kts | 0° |
| 2026-05-06 08:28 | -23.16698 | 176.74742 | 40059 ft | 512 kts | 0° |
| 2026-05-06 08:28 | -23.09620 | 176.75613 | 40059 ft | 512 kts | 0° |
| 2026-05-06 08:29 | -23.02538 | 176.76482 | 40049 ft | 511 kts | 0° |
| 2026-05-06 08:29 | -22.95540 | 176.77341 | 40053 ft | 511 kts | 0° |
| 2026-05-06 08:30 | -22.88493 | 176.78204 | 40053 ft | 511 kts | 0° |
| 2026-05-06 08:30 | -22.81445 | 176.79066 | 40048 ft | 511 kts | 0° |
| 2026-05-06 08:31 | -22.74393 | 176.79929 | 40021 ft | 511 kts | 0° |
| 2026-05-06 08:31 | -22.67393 | 176.80784 | 40040 ft | 510 kts | 0° |
| 2026-05-06 08:32 | -22.60355 | 176.81643 | 40040 ft | 510 kts | 0° |
| 2026-05-06 08:32 | -22.53289 | 176.82504 | 40037 ft | 510 kts | 0° |
| 2026-05-06 08:33 | -22.46232 | 176.83363 | 40037 ft | 510 kts | 0° |
| 2026-05-06 08:33 | -22.39209 | 176.84217 | 40026 ft | 510 kts | 0° |
| 2026-05-06 08:34 | -22.28652 | 176.85500 | 40033 ft | 509 kts | 0° |
| 2026-05-06 08:35 | -22.21658 | 176.86349 | 40026 ft | 508 kts | 0° |
| 2026-05-06 08:35 | -22.14632 | 176.87201 | 40022 ft | 509 kts | 0° |
| 2026-05-06 08:36 | -22.07586 | 176.88054 | 40024 ft | 508 kts | 1° |
| 2026-05-06 08:36 | -22.00587 | 176.88901 | 40025 ft | 507 kts | 1° |
| 2026-05-06 08:37 | -21.93578 | 176.89748 | 40026 ft | 507 kts | 1° |
| 2026-05-06 08:37 | -21.86621 | 176.90587 | 40023 ft | 507 kts | 1° |
| 2026-05-06 08:38 | -21.79602 | 176.91434 | 40021 ft | 507 kts | 1° |
| 2026-05-06 08:38 | -21.72589 | 176.92279 | 40014 ft | 506 kts | 1° |
| 2026-05-06 08:39 | -21.65601 | 176.93120 | 40018 ft | 505 kts | 1° |
| 2026-05-06 08:39 | -21.58618 | 176.93960 | 40018 ft | 505 kts | 1° |
| 2026-05-06 08:40 | -21.51645 | 176.94798 | 40029 ft | 505 kts | 1° |
| 2026-05-06 08:40 | -21.44653 | 176.95637 | 40015 ft | 505 kts | 1° |
| 2026-05-06 08:41 | -21.37723 | 176.96468 | 40014 ft | 505 kts | 1° |
| 2026-05-06 08:41 | -21.30747 | 176.97303 | 40012 ft | 505 kts | 1° |
| 2026-05-06 08:42 | -21.23780 | 176.98137 | 40008 ft | 505 kts | 1° |
| 2026-05-06 08:42 | -21.16784 | 176.98973 | 40010 ft | 505 kts | 1° |
| 2026-05-06 08:43 | -21.09895 | 176.99796 | 39996 ft | 504 kts | 1° |
| 2026-05-06 08:43 | -21.02973 | 177.00623 | 40006 ft | 503 kts | 1° |
| 2026-05-06 08:44 | -20.96048 | 177.01449 | 40003 ft | 502 kts | 1° |
| 2026-05-06 08:44 | -20.89165 | 177.02269 | 40004 ft | 502 kts | 1° |
| 2026-05-06 08:45 | -20.82222 | 177.03095 | 40000 ft | 502 kts | 1° |
| 2026-05-06 08:45 | -20.75277 | 177.03920 | 39994 ft | 502 kts | 1° |
| 2026-05-06 08:46 | -20.68397 | 177.04740 | 39790 ft | 494 kts | 1° |
| 2026-05-06 08:46 | -20.64997 | 177.05147 | 39552 ft | 487 kts | 1° |
| 2026-05-06 08:46 | -20.61637 | 177.05548 | 39320 ft | 484 kts | 1° |
| 2026-05-06 08:46 | -20.58297 | 177.05942 | 39093 ft | 486 kts | 1° |
| 2026-05-06 08:47 | -20.54922 | 177.06339 | 38860 ft | 488 kts | 1° |
| 2026-05-06 08:47 | -20.51526 | 177.06738 | 38636 ft | 491 kts | 1° |
| 2026-05-06 08:47 | -20.48178 | 177.07132 | 38377 ft | 492 kts | 1° |
| 2026-05-06 08:47 | -20.44762 | 177.07536 | 38081 ft | 494 kts | 1° |
| 2026-05-06 08:48 | -20.41345 | 177.07941 | 37807 ft | 493 kts | 1° |
| 2026-05-06 08:48 | -20.37954 | 177.08344 | 37553 ft | 493 kts | 1° |
| 2026-05-06 08:48 | -20.34540 | 177.08749 | 37297 ft | 494 kts | 1° |
| 2026-05-06 08:48 | -20.31116 | 177.09154 | 37046 ft | 495 kts | 1° |
| 2026-05-06 08:49 | -20.27770 | 177.09549 | 36802 ft | 496 kts | 0° |
| 2026-05-06 08:49 | -20.24327 | 177.09956 | 36556 ft | 497 kts | 0° |
| 2026-05-06 08:49 | -20.20880 | 177.10361 | 36307 ft | 498 kts | 0° |
| 2026-05-06 08:49 | -20.17444 | 177.10764 | 36069 ft | 499 kts | 0° |
| 2026-05-06 08:50 | -20.13972 | 177.11170 | 35826 ft | 500 kts | 0° |
| 2026-05-06 08:50 | -20.10524 | 177.11573 | 35569 ft | 501 kts | 0° |
| 2026-05-06 08:50 | -20.07053 | 177.11979 | 35335 ft | 502 kts | 0° |
| 2026-05-06 08:50 | -20.03617 | 177.12381 | 35104 ft | 503 kts | 360° |
| 2026-05-06 08:51 | -20.00130 | 177.12788 | 34874 ft | 504 kts | 360° |
| 2026-05-06 08:51 | -19.96636 | 177.13197 | 34643 ft | 505 kts | 360° |
| 2026-05-06 08:51 | -19.93126 | 177.13607 | 34413 ft | 507 kts | 359° |
| 2026-05-06 08:51 | -19.89618 | 177.14016 | 34190 ft | 508 kts | 359° |
| 2026-05-06 08:52 | -19.86091 | 177.14428 | 33967 ft | 509 kts | 359° |
| 2026-05-06 08:52 | -19.82611 | 177.14834 | 33713 ft | 510 kts | 359° |
| 2026-05-06 08:52 | -19.79077 | 177.15246 | 33454 ft | 510 kts | 360° |
| 2026-05-06 08:52 | -19.75536 | 177.15659 | 33171 ft | 510 kts | 0° |
| 2026-05-06 08:53 | -19.72001 | 177.16071 | 32916 ft | 510 kts | 0° |
| 2026-05-06 08:53 | -19.68462 | 177.16484 | 32659 ft | 510 kts | 0° |
| 2026-05-06 08:53 | -19.64934 | 177.16895 | 32417 ft | 510 kts | 0° |
| 2026-05-06 08:53 | -19.61464 | 177.17299 | 32173 ft | 510 kts | 0° |
| 2026-05-06 08:54 | -19.57921 | 177.17711 | 31929 ft | 510 kts | 0° |
| 2026-05-06 08:54 | -19.54390 | 177.18122 | 31687 ft | 510 kts | 0° |
| 2026-05-06 08:54 | -19.50854 | 177.18533 | 31448 ft | 510 kts | 1° |
| 2026-05-06 08:54 | -19.47335 | 177.18942 | 31205 ft | 509 kts | 1° |
| 2026-05-06 08:55 | -19.43863 | 177.19346 | 30977 ft | 507 kts | 1° |
| 2026-05-06 08:55 | -19.40349 | 177.19756 | 30721 ft | 505 kts | 1° |
| 2026-05-06 08:55 | -19.36914 | 177.20155 | 30494 ft | 502 kts | 1° |
| 2026-05-06 08:55 | -19.33446 | 177.20559 | 30262 ft | 500 kts | 1° |
| 2026-05-06 08:56 | -19.29980 | 177.20937 | 30004 ft | 497 kts | 0° |
| 2026-05-06 08:56 | -19.26554 | 177.21255 | 29378 ft | 493 kts | 360° |
| 2026-05-06 08:56 | -19.23160 | 177.21537 | 28669 ft | 492 kts | 359° |
| 2026-05-06 08:56 | -19.19788 | 177.21804 | 27986 ft | 490 kts | 360° |
| 2026-05-06 08:57 | -19.16390 | 177.22073 | 27307 ft | 489 kts | 360° |
| 2026-05-06 08:57 | -19.13075 | 177.22338 | 26620 ft | 487 kts | 0° |
| 2026-05-06 08:57 | -19.09706 | 177.22612 | 25899 ft | 486 kts | 0° |
| 2026-05-06 08:57 | -19.06349 | 177.22890 | 25320 ft | 481 kts | 1° |
| 2026-05-06 08:58 | -19.03025 | 177.23168 | 24816 ft | 475 kts | 1° |
| 2026-05-06 08:58 | -18.99787 | 177.23441 | 24259 ft | 471 kts | 1° |
| 2026-05-06 08:58 | -18.96526 | 177.23715 | 23691 ft | 467 kts | 1° |
| 2026-05-06 08:58 | -18.93310 | 177.23985 | 23071 ft | 462 kts | 1° |
| 2026-05-06 08:59 | -18.90115 | 177.24253 | 22435 ft | 457 kts | 1° |
| 2026-05-06 08:59 | -18.86956 | 177.24517 | 21817 ft | 453 kts | 1° |
| 2026-05-06 08:59 | -18.83825 | 177.24779 | 21203 ft | 448 kts | 1° |
| 2026-05-06 08:59 | -18.80735 | 177.25037 | 20612 ft | 443 kts | 1° |
| 2026-05-06 09:00 | -18.77709 | 177.25290 | 20008 ft | 440 kts | 2° |
| 2026-05-06 09:00 | -18.74673 | 177.25542 | 19430 ft | 435 kts | 2° |
| 2026-05-06 09:00 | -18.71660 | 177.25794 | 18841 ft | 431 kts | 2° |
| 2026-05-06 09:00 | -18.68670 | 177.26043 | 18291 ft | 426 kts | 2° |
| 2026-05-06 09:01 | -18.65725 | 177.26288 | 17646 ft | 422 kts | 2° |
| 2026-05-06 09:01 | -18.62838 | 177.26529 | 17014 ft | 418 kts | 2° |
| 2026-05-06 09:01 | -18.59952 | 177.26769 | 16404 ft | 414 kts | 2° |
| 2026-05-06 09:01 | -18.57092 | 177.27006 | 15814 ft | 410 kts | 3° |
| 2026-05-06 09:02 | -18.54273 | 177.27240 | 15150 ft | 407 kts | 3° |
| 2026-05-06 09:02 | -18.52374 | 177.27399 | 14812 ft | 403 kts | 3° |
| 2026-05-06 09:02 | -18.49626 | 177.27627 | 14160 ft | 402 kts | 4° |
| 2026-05-06 09:02 | -18.46861 | 177.27857 | 13585 ft | 397 kts | 4° |
| 2026-05-06 09:03 | -18.44116 | 177.28084 | 12998 ft | 391 kts | 4° |
| 2026-05-06 09:03 | -18.41405 | 177.28309 | 12259 ft | 391 kts | 4° |
| 2026-05-06 09:03 | -18.38718 | 177.28533 | 11832 ft | 381 kts | 4° |
| 2026-05-06 09:03 | -18.36121 | 177.28748 | 11206 ft | 377 kts | 5° |
| 2026-05-06 09:04 | -18.33512 | 177.28965 | 10601 ft | 374 kts | 5° |
| 2026-05-06 09:04 | -18.30962 | 177.29176 | 10186 ft | 358 kts | 5° |
| 2026-05-06 09:04 | -18.28579 | 177.29372 | 9857 ft | 332 kts | 5° |
| 2026-05-06 09:04 | -18.26359 | 177.29554 | 9518 ft | 319 kts | 5° |
| 2026-05-06 09:05 | -18.24171 | 177.29735 | 9248 ft | 311 kts | 5° |
| 2026-05-06 09:05 | -18.22025 | 177.29912 | 8795 ft | 310 kts | 5° |
| 2026-05-06 09:05 | -18.19885 | 177.30089 | 8444 ft | 305 kts | 6° |
| 2026-05-06 09:05 | -18.17783 | 177.30263 | 8083 ft | 301 kts | 6° |
| 2026-05-06 09:06 | -18.15734 | 177.30432 | 7751 ft | 297 kts | 6° |
| 2026-05-06 09:06 | -18.13675 | 177.30601 | 7307 ft | 297 kts | 6° |
| 2026-05-06 09:06 | -18.11628 | 177.30769 | 6970 ft | 293 kts | 6° |
| 2026-05-06 09:06 | -18.09598 | 177.30937 | 6575 ft | 293 kts | 7° |
| 2026-05-06 09:07 | -18.07577 | 177.31107 | 6226 ft | 289 kts | 7° |
| 2026-05-06 09:07 | -18.05571 | 177.31276 | 5799 ft | 288 kts | 8° |
| 2026-05-06 09:07 | -18.03573 | 177.31443 | 5432 ft | 286 kts | 7° |
| 2026-05-06 09:07 | -18.01589 | 177.31608 | 5097 ft | 285 kts | 7° |
| 2026-05-06 09:08 | -17.99620 | 177.31769 | 5010 ft | 277 kts | 8° |
| 2026-05-06 09:08 | -17.97829 | 177.31908 | 4992 ft | 247 kts | 8° |
| 2026-05-06 09:08 | -17.96174 | 177.32035 | 4965 ft | 233 kts | 8° |
| 2026-05-06 09:08 | -17.94575 | 177.32165 | 4697 ft | 228 kts | 9° |
| 2026-05-06 09:09 | -17.92993 | 177.32300 | 4349 ft | 228 kts | 9° |
| 2026-05-06 09:09 | -17.91412 | 177.32456 | 4027 ft | 226 kts | 14° |
| 2026-05-06 09:09 | -17.89909 | 177.32903 | 3682 ft | 222 kts | 28° |
| 2026-05-06 09:09 | -17.88623 | 177.33713 | 3436 ft | 207 kts | 44° |
| 2026-05-06 09:10 | -17.87541 | 177.34616 | 3268 ft | 191 kts | 45° |
| 2026-05-06 09:10 | -17.86545 | 177.35428 | 3121 ft | 174 kts | 45° |
| 2026-05-06 09:10 | -17.85602 | 177.36155 | 2847 ft | 164 kts | 43° |
| 2026-05-06 09:10 | -17.84679 | 177.36832 | 2420 ft | 163 kts | 45° |
| 2026-05-06 09:11 | -17.83755 | 177.37589 | 1728 ft | 175 kts | 46° |
| 2026-05-06 09:11 | -17.82845 | 177.38393 | 1381 ft | 164 kts | 47° |
| 2026-05-06 09:11 | -17.82017 | 177.39120 | 1177 ft | 147 kts | 45° |
| 2026-05-06 09:11 | -17.81238 | 177.39736 | 984 ft | 133 kts | 43° |
| 2026-05-06 09:12 | -17.80522 | 177.40286 | 822 ft | 128 kts | 43° |
| 2026-05-06 09:12 | -17.79824 | 177.40862 | 670 ft | 128 kts | 41° |
| 2026-05-06 09:12 | -17.79105 | 177.41417 | 550 ft | 129 kts | 44° |
| 2026-05-06 09:12 | -17.78396 | 177.42010 | 356 ft | 131 kts | 40° |
| 2026-05-06 09:13 | -17.77678 | 177.42584 | 182 ft | 129 kts | 38° |
| 2026-05-06 09:13 | -17.76976 | 177.43151 | 56 ft | 122 kts | 40° |
| 2026-05-06 09:13 | -17.76422 | 177.43599 | 46 ft | 68 kts | 37° |
| 2026-05-06 09:13 | -17.76269 | 177.43722 | 50 ft | 6 kts | 37° |
| 2026-05-06 09:14 | -17.76162 | 177.43807 | 49 ft | 33 kts | 37° |
| 2026-05-06 09:14 | -17.75898 | 177.44022 | 48 ft | 62 kts | 38° |
| 2026-05-06 09:14 | -17.75603 | 177.44257 | 50 ft | 15 kts | 37° |
| 2026-05-06 09:14 | -17.75532 | 177.44318 | 48 ft | 33 kts | 39° |
| 2026-05-06 09:15 | -17.75230 | 177.44561 | 49 ft | 59 kts | 38° |
| 2026-05-06 09:15 | -17.75106 | 177.44689 | 52 ft | 1 kts | 92° |
| 2026-05-06 09:15 | -17.75121 | 177.44737 | 51 ft | 16 kts | 105° |
| 2026-05-06 09:15 | -17.75160 | 177.44885 | 51 ft | 22 kts | 111° |
| 2026-05-06 09:16 | -17.75185 | 177.44917 | 50 ft | 6 kts | 141° |
| 2026-05-06 09:16 | -17.75231 | 177.44927 | 53 ft | 8 kts | 179° |
| 2026-05-06 09:16 | -17.75290 | 177.44920 | 50 ft | 10 kts | 189° |
| 2026-05-06 09:16 | -17.75354 | 177.44920 | 52 ft | 2 kts | 175° |
| 2026-05-06 09:17 | -17.75360 | 177.44925 | 52 ft | 1 kts | 142° |
| 2026-05-06 09:17 | -17.75362 | 177.44940 | 50 ft | 3 kts | 97° |
| 2026-05-06 09:17 | -17.75365 | 177.44957 | 52 ft | 0 kts | 103° |